createdAt,value
2019-01-08T00:02:42.610Z,0.70
2019-01-08T00:07:49.597Z,0.70
2019-01-08T00:12:56.669Z,0.70
2019-01-08T00:18:04.440Z,0.60
2019-01-08T00:23:11.520Z,0.70
2019-01-08T00:28:18.791Z,0.70
2019-01-08T00:33:27.342Z,0.70
2019-01-08T00:38:34.418Z,0.70
2019-01-08T00:43:41.502Z,0.70
2019-01-08T00:48:49.893Z,0.70
2019-01-08T00:53:56.959Z,0.80
2019-01-08T00:59:05.837Z,0.80
2019-01-08T01:04:12.899Z,0.80
2019-01-08T01:09:20.103Z,0.80
2019-01-08T01:14:27.175Z,0.80
2019-01-08T01:19:34.758Z,0.80
2019-01-08T01:24:41.827Z,0.90
2019-01-08T01:29:49.211Z,0.90
2019-01-08T01:34:56.313Z,0.90
2019-01-08T01:40:03.429Z,0.80
2019-01-08T01:45:10.654Z,0.90
2019-01-08T01:50:17.762Z,0.90
2019-01-08T01:55:24.737Z,0.90
2019-01-08T02:00:31.809Z,0.90
2019-01-08T02:05:39.216Z,0.80
2019-01-08T02:10:46.333Z,0.90
2019-01-08T02:15:53.409Z,0.90
2019-01-08T02:21:00.583Z,0.90
2019-01-08T02:26:08.071Z,1.00
2019-01-08T02:31:15.396Z,1.00
2019-01-08T02:36:22.477Z,1.10
2019-01-08T02:41:29.881Z,1.10
2019-01-08T02:46:37.374Z,1.00
2019-01-08T02:51:44.536Z,1.00
2019-01-08T02:56:52.335Z,1.10
2019-01-08T03:01:59.583Z,1.10
2019-01-08T03:07:06.919Z,1.10
2019-01-08T03:12:14.006Z,1.10
2019-01-08T03:17:21.187Z,1.00
2019-01-08T03:22:28.485Z,1.10
2019-01-08T03:27:35.880Z,1.00
2019-01-08T03:32:42.976Z,1.00
2019-01-08T03:37:49.948Z,1.00
2019-01-08T03:42:57.150Z,1.00
2019-01-08T03:48:04.370Z,0.90
2019-01-08T03:53:12.211Z,0.90
2019-01-08T03:58:19.619Z,1.00
2019-01-08T04:03:26.882Z,1.00
2019-01-08T04:08:33.955Z,0.90
2019-01-08T04:13:41.159Z,0.90
2019-01-08T04:18:48.240Z,0.90
2019-01-08T04:23:55.298Z,0.90
2019-01-08T04:29:02.471Z,1.00
2019-01-08T04:34:10.111Z,1.00
2019-01-08T04:39:17.209Z,1.00
2019-01-08T04:44:25.893Z,1.00
2019-01-08T04:49:33.028Z,1.00
2019-01-08T04:54:40.093Z,0.90
2019-01-08T04:59:47.241Z,1.00
2019-01-08T05:04:54.780Z,0.90
2019-01-08T05:10:01.981Z,0.90
2019-01-08T05:15:09.593Z,0.90
2019-01-08T05:20:16.650Z,1.00
2019-01-08T05:25:23.725Z,1.00
2019-01-08T05:30:30.787Z,1.00
2019-01-08T05:35:37.965Z,1.00
2019-01-08T05:40:45.149Z,1.00
2019-01-08T05:45:52.212Z,1.00
2019-01-08T05:50:59.397Z,1.10
2019-01-08T05:56:06.595Z,1.10
2019-01-08T06:01:13.661Z,1.00
2019-01-08T06:06:20.732Z,1.10
2019-01-08T06:11:27.826Z,1.10
2019-01-08T06:16:35.507Z,1.10
2019-01-08T06:21:42.692Z,1.10
2019-01-08T06:26:49.878Z,1.10
2019-01-08T06:31:57.180Z,1.10
2019-01-08T06:37:04.270Z,1.20
2019-01-08T06:42:11.449Z,1.20
2019-01-08T06:47:18.531Z,1.20
2019-01-08T06:52:26.198Z,1.30
2019-01-08T06:57:34.524Z,1.30
2019-01-08T07:02:41.668Z,1.30
2019-01-08T07:07:48.734Z,1.30
2019-01-08T07:12:55.932Z,1.30
2019-01-08T07:18:02.999Z,1.40
2019-01-08T07:23:11.577Z,1.50
2019-01-08T07:28:19.259Z,1.60
2019-01-08T07:33:27.648Z,1.50
2019-01-08T07:38:34.831Z,1.50
2019-01-08T07:43:42.124Z,1.60
2019-01-08T07:48:51.229Z,1.70
2019-01-08T07:53:58.469Z,1.70
2019-01-08T07:59:05.786Z,1.80
2019-01-08T08:04:12.921Z,1.90
2019-01-08T08:09:20.397Z,1.90
2019-01-08T08:14:27.451Z,1.90
2019-01-08T08:19:34.718Z,2.00
2019-01-08T08:24:41.795Z,2.10
2019-01-08T08:29:53.062Z,2.20
2019-01-08T08:35:07.927Z,2.30
2019-01-08T08:40:10.392Z,2.40
2019-01-08T08:45:17.793Z,2.40
2019-01-08T08:50:24.921Z,2.40
2019-01-08T08:55:32.003Z,2.40
2019-01-08T09:00:39.087Z,2.50
2019-01-08T09:05:46.166Z,2.50
2019-01-08T09:10:53.285Z,2.60
2019-01-08T09:16:01.242Z,2.60
2019-01-08T09:21:08.943Z,2.70
2019-01-08T09:26:16.015Z,2.70
2019-01-08T09:31:23.435Z,2.80
2019-01-08T09:36:31.083Z,2.80
2019-01-08T09:41:38.258Z,2.90
2019-01-08T09:46:45.228Z,3.00
2019-01-08T09:51:52.388Z,3.10
2019-01-08T09:56:59.640Z,3.20
2019-01-08T10:02:06.840Z,3.30
2019-01-08T10:07:14.035Z,3.30
2019-01-08T10:12:21.119Z,3.40
2019-01-08T10:17:28.092Z,3.40
2019-01-08T10:22:35.184Z,3.50
2019-01-08T10:27:42.601Z,3.40
2019-01-08T10:32:50.925Z,3.40
2019-01-08T10:37:57.986Z,3.50
2019-01-08T10:43:06.084Z,3.50
2019-01-08T10:48:13.087Z,3.40
2019-01-08T10:53:26.699Z,3.40
2019-01-08T10:58:33.875Z,3.40
2019-01-08T11:03:41.384Z,3.40
2019-01-08T11:08:49.245Z,3.40
2019-01-08T11:13:56.445Z,3.40
2019-01-08T11:19:03.557Z,3.50
2019-01-08T11:24:10.514Z,3.40
2019-01-08T11:29:17.726Z,3.40
2019-01-08T11:34:24.867Z,3.40
2019-01-08T11:39:32.039Z,3.40
2019-01-08T11:44:39.224Z,3.40
2019-01-08T11:49:47.887Z,3.40
2019-01-08T11:54:55.177Z,3.30
2019-01-08T12:00:02.276Z,3.40
2019-01-08T12:05:11.073Z,3.40
2019-01-08T12:10:18.461Z,3.40
2019-01-08T12:15:25.561Z,3.40
2019-01-08T12:20:32.931Z,3.30
2019-01-08T12:25:40.116Z,3.30
2019-01-08T12:30:47.426Z,3.30
2019-01-08T12:35:54.617Z,3.30
2019-01-08T12:41:01.692Z,3.30
2019-01-08T12:46:09.950Z,3.30
2019-01-08T12:51:17.040Z,3.30
2019-01-08T12:56:24.417Z,3.30
2019-01-08T13:01:31.560Z,3.30
2019-01-08T13:06:39.846Z,3.30
2019-01-08T13:11:47.298Z,3.40
2019-01-08T13:16:56.191Z,3.40
2019-01-08T13:22:03.260Z,3.40
2019-01-08T13:27:11.209Z,3.50
2019-01-08T13:32:23.088Z,3.40
2019-01-08T13:37:27.504Z,3.40
2019-01-08T13:42:34.609Z,3.40
2019-01-08T13:47:41.796Z,3.40
2019-01-08T13:52:48.873Z,3.40
2019-01-08T13:57:55.946Z,3.40
2019-01-08T14:03:03.153Z,3.40
2019-01-08T14:08:11.038Z,3.40
2019-01-08T14:13:18.214Z,3.40
2019-01-08T14:18:25.498Z,3.40
2019-01-08T14:23:32.672Z,3.30
2019-01-08T14:28:39.817Z,3.30
2019-01-08T14:33:46.965Z,3.20
2019-01-08T14:38:54.038Z,3.20
2019-01-08T14:44:01.033Z,3.20
2019-01-08T14:49:08.198Z,3.10
2019-01-08T14:54:15.821Z,3.20
2019-01-08T14:59:24.126Z,3.10
2019-01-08T15:04:31.392Z,3.10
2019-01-08T15:09:38.653Z,3.00
2019-01-08T15:14:46.010Z,3.00
2019-01-08T15:19:53.209Z,3.10
2019-01-08T15:25:01.493Z,3.10
2019-01-08T15:30:10.749Z,3.10
2019-01-08T15:35:17.819Z,3.00
2019-01-08T15:40:25.785Z,3.10
2019-01-08T15:45:33.478Z,3.00
2019-01-08T15:50:40.672Z,3.00
2019-01-08T15:55:48.744Z,3.00
2019-01-08T16:00:55.992Z,3.00
2019-01-08T16:06:03.185Z,3.00
2019-01-08T16:11:11.255Z,3.00
2019-01-08T16:16:18.415Z,3.00
2019-01-08T16:21:25.583Z,2.90
2019-01-08T16:26:32.725Z,2.90
2019-01-08T16:31:40.212Z,2.90
2019-01-08T16:36:48.438Z,2.90
2019-01-08T16:41:56.531Z,2.90
2019-01-08T16:47:03.757Z,2.80
2019-01-08T16:52:12.012Z,2.80
2019-01-08T16:57:20.324Z,2.80
2019-01-08T17:02:27.400Z,2.80
2019-01-08T17:07:35.718Z,2.80
2019-01-08T17:12:42.901Z,2.80
2019-01-08T17:17:51.497Z,2.80
2019-01-08T17:22:58.795Z,2.80
2019-01-08T17:28:06.087Z,2.80
2019-01-08T17:33:13.463Z,2.70
2019-01-08T17:38:20.676Z,2.70
2019-01-08T17:43:33.505Z,2.70
2019-01-08T17:48:36.701Z,2.70
2019-01-08T17:53:44.985Z,2.70
2019-01-08T17:58:58.988Z,2.60
2019-01-08T18:04:06.067Z,2.60
2019-01-08T18:09:13.636Z,2.60
2019-01-08T18:14:21.536Z,2.60
2019-01-08T18:19:29.927Z,2.60
2019-01-08T18:24:37.318Z,2.60
2019-01-08T18:29:45.402Z,2.60
2019-01-08T18:34:52.806Z,2.50
2019-01-08T18:40:01.302Z,2.50
2019-01-08T18:45:09.092Z,2.50
2019-01-08T18:50:17.261Z,2.50
2019-01-08T18:55:24.706Z,2.50
2019-01-08T19:00:33.788Z,2.50
2019-01-08T19:05:41.077Z,2.50
2019-01-08T19:10:48.265Z,2.50
2019-01-08T19:15:56.622Z,2.50
2019-01-08T19:21:05.315Z,2.50
2019-01-08T19:26:12.802Z,2.50
2019-01-08T19:31:20.211Z,2.50
2019-01-08T19:36:27.256Z,2.50
2019-01-08T19:41:35.602Z,2.60
2019-01-08T19:46:43.505Z,2.50
2019-01-08T19:51:50.699Z,2.50
2019-01-08T19:56:58.099Z,2.50
2019-01-08T20:02:06.456Z,2.50
2019-01-08T20:07:13.544Z,2.40
2019-01-08T20:12:20.948Z,2.50
2019-01-08T20:17:30.943Z,2.50
2019-01-08T20:22:37.769Z,2.40
2019-01-08T20:27:45.816Z,2.40
2019-01-08T20:32:53.666Z,2.40
2019-01-08T20:38:01.443Z,2.40
2019-01-08T20:43:09.855Z,2.40
2019-01-08T20:48:17.367Z,2.40
2019-01-08T20:53:26.066Z,2.40
2019-01-08T20:58:34.731Z,2.40
2019-01-08T21:03:44.232Z,2.40
2019-01-08T21:08:52.501Z,2.40
2019-01-08T21:14:00.864Z,2.40
2019-01-08T21:19:08.234Z,2.30
2019-01-08T21:24:15.325Z,2.30
2019-01-08T21:29:23.403Z,2.30
2019-01-08T21:34:31.077Z,2.30
2019-01-08T21:39:38.682Z,2.30
2019-01-08T21:44:46.138Z,2.30
2019-01-08T21:49:53.634Z,2.30
2019-01-08T21:55:01.425Z,2.30
2019-01-08T22:00:09.457Z,2.30
2019-01-08T22:05:16.561Z,2.20
2019-01-08T22:10:24.867Z,2.20
2019-01-08T22:15:31.953Z,2.20
2019-01-08T22:20:39.225Z,2.20
2019-01-08T22:25:46.633Z,2.20
2019-01-08T22:30:54.053Z,2.10
2019-01-08T22:36:01.367Z,2.10
2019-01-08T22:41:08.858Z,2.10
2019-01-08T22:46:15.939Z,2.10
2019-01-08T22:51:23.297Z,2.10
2019-01-08T22:56:30.462Z,2.00
2019-01-08T23:01:46.090Z,2.00
2019-01-08T23:06:53.199Z,2.00
2019-01-08T23:12:00.409Z,2.00
2019-01-08T23:17:08.686Z,2.00
2019-01-08T23:22:15.886Z,2.00
2019-01-08T23:27:23.014Z,2.00
2019-01-08T23:32:30.194Z,2.00
2019-01-08T23:37:37.463Z,2.00
2019-01-08T23:42:44.545Z,2.00
2019-01-08T23:47:52.335Z,2.00
2019-01-08T23:53:07.172Z,2.00
2019-01-08T23:58:14.828Z,1.90
